createdAt,value
2019-05-26T00:00:34.930Z,57.48
2019-05-26T00:03:08.580Z,58.63
2019-05-26T00:05:41.047Z,59.21
2019-05-26T00:08:13.315Z,60.34
2019-05-26T00:10:45.803Z,61.54
2019-05-26T00:13:18.271Z,62.30
2019-05-26T00:15:50.965Z,64.75
2019-05-26T00:18:23.340Z,60.16
2019-05-26T00:20:56.120Z,55.55
2019-05-26T00:23:29.681Z,53.08
2019-05-26T00:26:02.241Z,53.81
2019-05-26T00:28:34.785Z,54.69
2019-05-26T00:31:07.450Z,55.96
2019-05-26T00:33:40.075Z,56.85
2019-05-26T00:36:12.695Z,58.13
2019-05-26T00:38:45.175Z,59.49
2019-05-26T00:41:17.820Z,60.49
2019-05-26T00:43:50.524Z,61.46
2019-05-26T00:46:23.055Z,62.44
2019-05-26T00:48:55.580Z,64.29
2019-05-26T00:51:28.483Z,58.62
2019-05-26T00:54:01.093Z,54.91
2019-05-26T00:56:33.710Z,55.29
2019-05-26T00:59:06.630Z,56.22
2019-05-26T01:01:39.226Z,57.46
2019-05-26T01:04:11.825Z,58.63
2019-05-26T01:06:44.295Z,59.54
2019-05-26T01:09:17.520Z,60.35
2019-05-26T01:11:51.474Z,61.37
2019-05-26T01:14:24.008Z,61.86
2019-05-26T01:16:57.975Z,62.70
2019-05-26T01:19:32.010Z,64.01
2019-05-26T01:22:06.130Z,58.50
2019-05-26T01:24:39.985Z,54.71
2019-05-26T01:27:12.715Z,55.18
2019-05-26T01:29:45.309Z,56.18
2019-05-26T01:32:17.730Z,57.49
2019-05-26T01:34:50.168Z,58.30
2019-05-26T01:37:22.771Z,59.55
2019-05-26T01:39:55.665Z,60.35
2019-05-26T01:42:28.236Z,61.15
2019-05-26T01:45:00.757Z,61.98
2019-05-26T01:47:34.645Z,62.70
2019-05-26T01:50:08.539Z,64.36
2019-05-26T01:52:41.118Z,59.32
2019-05-26T01:55:13.544Z,55.59
2019-05-26T01:57:46.375Z,55.84
2019-05-26T02:00:19.005Z,56.74
2019-05-26T02:02:51.815Z,57.49
2019-05-26T02:05:24.193Z,58.46
2019-05-26T02:07:56.935Z,59.58
2019-05-26T02:10:29.709Z,60.52
2019-05-26T02:13:02.135Z,62.04
2019-05-26T02:15:34.748Z,62.58
2019-05-26T02:18:07.863Z,63.80
2019-05-26T02:20:40.425Z,58.88
2019-05-26T02:23:13.165Z,54.96
2019-05-26T02:25:45.586Z,55.68
2019-05-26T02:28:17.990Z,56.58
2019-05-26T02:30:50.432Z,57.54
2019-05-26T02:33:22.921Z,58.44
2019-05-26T02:35:55.386Z,59.46
2019-05-26T02:38:27.851Z,60.41
2019-05-26T02:41:00.316Z,61.43
2019-05-26T02:43:33.210Z,62.20
2019-05-26T02:46:06.235Z,63.10
2019-05-26T02:48:38.755Z,63.81
2019-05-26T02:51:11.136Z,59.23
2019-05-26T02:53:43.601Z,55.65
2019-05-26T02:56:16.283Z,55.99
2019-05-26T02:58:48.850Z,56.77
2019-05-26T03:01:21.765Z,57.49
2019-05-26T03:03:55.056Z,58.62
2019-05-26T03:06:29.690Z,59.47
2019-05-26T03:09:21.172Z,60.29
2019-05-26T03:11:41.057Z,61.13
2019-05-26T03:14:14.614Z,62.06
2019-05-26T03:16:48.672Z,62.75
2019-05-26T03:19:21.380Z,64.01
2019-05-26T03:21:56.749Z,58.91
2019-05-26T03:24:30.932Z,55.69
2019-05-26T03:27:03.392Z,56.00
2019-05-26T03:29:35.905Z,56.78
2019-05-26T03:32:08.593Z,57.69
2019-05-26T03:34:41.281Z,58.47
2019-05-26T03:37:13.796Z,59.56
2019-05-26T03:39:46.712Z,60.67
2019-05-26T03:42:19.276Z,61.55
2019-05-26T03:44:51.735Z,62.48
2019-05-26T03:47:24.141Z,63.54
2019-05-26T03:49:56.757Z,58.23
2019-05-26T03:52:29.365Z,54.75
2019-05-26T03:55:02.106Z,54.88
2019-05-26T03:57:35.163Z,56.16
2019-05-26T04:00:09.685Z,56.52
2019-05-26T04:02:42.166Z,57.42
2019-05-26T04:05:15.710Z,58.28
2019-05-26T04:07:48.092Z,59.29
2019-05-26T04:10:20.807Z,60.13
2019-05-26T04:12:53.141Z,61.08
2019-05-26T04:15:26.331Z,61.80
2019-05-26T04:17:58.746Z,62.34
2019-05-26T04:20:31.352Z,63.71
2019-05-26T04:23:04.201Z,58.26
2019-05-26T04:25:37.011Z,54.27
2019-05-26T04:28:09.565Z,55.00
2019-05-26T04:30:41.950Z,56.33
2019-05-26T04:33:14.610Z,56.88
2019-05-26T04:35:47.027Z,57.57
2019-05-26T04:38:19.465Z,57.80
2019-05-26T04:40:51.860Z,58.70
2019-05-26T04:43:24.401Z,59.51
2019-05-26T04:45:56.796Z,60.34
2019-05-26T04:48:29.354Z,61.14
2019-05-26T04:51:02.727Z,61.64
2019-05-26T04:53:35.712Z,62.28
2019-05-26T04:56:08.145Z,62.84
2019-05-26T04:58:40.672Z,57.38
2019-05-26T05:01:13.076Z,53.27
2019-05-26T05:03:45.516Z,53.89
2019-05-26T05:06:17.980Z,54.81
2019-05-26T05:08:50.706Z,55.37
2019-05-26T05:11:23.285Z,55.52
2019-05-26T05:13:55.815Z,56.28
2019-05-26T05:16:28.590Z,57.46
2019-05-26T05:19:00.989Z,57.82
2019-05-26T05:21:33.535Z,58.27
2019-05-26T05:24:06.010Z,58.68
2019-05-26T05:26:38.635Z,59.28
2019-05-26T05:29:11.063Z,59.06
2019-05-26T05:31:43.621Z,58.96
2019-05-26T05:34:16.131Z,59.16
2019-05-26T05:36:48.754Z,59.23
2019-05-26T05:39:21.275Z,59.71
2019-05-26T05:41:53.866Z,60.09
2019-05-26T05:44:26.560Z,60.33
2019-05-26T05:46:59.077Z,59.83
2019-05-26T05:49:31.489Z,60.06
2019-05-26T05:52:05.430Z,59.55
2019-05-26T05:54:38.094Z,60.92
2019-05-26T05:57:10.750Z,59.57
2019-05-26T05:59:43.110Z,61.40
2019-05-26T06:02:15.518Z,61.47
2019-05-26T06:04:48.080Z,61.13
2019-05-26T06:07:20.905Z,60.33
2019-05-26T06:09:54.135Z,60.33
2019-05-26T06:12:26.625Z,61.37
2019-05-26T06:14:59.090Z,60.82
2019-05-26T06:17:31.890Z,60.14
2019-05-26T06:20:06.132Z,60.18
2019-05-26T06:22:38.770Z,59.92
2019-05-26T06:25:11.575Z,59.39
2019-05-26T06:27:44.292Z,59.78
2019-05-26T06:30:17.400Z,59.98
2019-05-26T06:32:50.030Z,59.83
2019-05-26T06:35:22.580Z,59.57
2019-05-26T06:37:55.140Z,58.98
2019-05-26T06:40:27.673Z,58.39
2019-05-26T06:43:00.491Z,57.97
2019-05-26T06:45:34.014Z,57.62
2019-05-26T06:48:06.575Z,57.25
2019-05-26T06:50:39.045Z,58.02
2019-05-26T06:53:11.745Z,57.27
2019-05-26T06:55:44.116Z,56.36
2019-05-26T06:58:16.860Z,55.81
2019-05-26T07:00:49.590Z,55.22
2019-05-26T07:03:22.278Z,54.54
2019-05-26T07:05:55.125Z,55.58
2019-05-26T07:08:27.875Z,52.45
2019-05-26T07:11:00.751Z,52.98
2019-05-26T07:13:33.255Z,52.32
2019-05-26T07:16:06.625Z,50.17
2019-05-26T07:18:39.082Z,51.53
2019-05-26T07:21:11.850Z,50.99
2019-05-26T07:23:44.310Z,49.36
2019-05-26T07:26:16.815Z,50.02
2019-05-26T07:28:49.745Z,50.62
2019-05-26T07:31:22.733Z,49.73
2019-05-26T07:33:55.367Z,48.38
2019-05-26T07:36:27.999Z,47.59
2019-05-26T07:39:00.580Z,47.66
2019-05-26T07:41:33.290Z,46.14
2019-05-26T07:44:05.966Z,44.83
2019-05-26T07:46:38.515Z,45.31
2019-05-26T07:49:10.895Z,44.61
2019-05-26T07:51:44.750Z,45.17
2019-05-26T07:54:25.716Z,47.24
2019-05-26T07:56:51.716Z,45.51
2019-05-26T07:59:24.106Z,44.36
2019-05-26T08:01:56.740Z,46.38
2019-05-26T08:04:29.440Z,45.09
2019-05-26T08:07:01.898Z,44.08
2019-05-26T08:09:34.492Z,45.67
2019-05-26T08:12:07.495Z,43.88
2019-05-26T08:14:39.905Z,44.40
2019-05-26T08:17:12.586Z,45.89
2019-05-26T08:19:45.110Z,42.75
2019-05-26T08:22:17.655Z,43.17
2019-05-26T08:24:50.412Z,43.85
2019-05-26T08:27:24.180Z,41.44
2019-05-26T08:29:57.135Z,44.61
2019-05-26T08:32:29.660Z,43.67
2019-05-26T08:35:02.176Z,43.11
2019-05-26T08:37:35.651Z,42.41
2019-05-26T08:40:21.196Z,44.26
2019-05-26T08:42:54.351Z,43.18
2019-05-26T08:45:27.010Z,42.61
2019-05-26T08:47:59.615Z,41.30
2019-05-26T08:50:34.481Z,42.13
2019-05-26T08:53:06.526Z,41.73
2019-05-26T08:55:39.310Z,41.62
2019-05-26T08:58:11.976Z,41.66
2019-05-26T09:00:44.440Z,41.12
2019-05-26T09:03:17.115Z,40.89
2019-05-26T09:05:50.210Z,40.32
2019-05-26T09:08:22.547Z,38.83
2019-05-26T09:10:55.205Z,40.46
2019-05-26T09:13:27.965Z,39.97
2019-05-26T09:16:00.460Z,39.08
2019-05-26T09:18:33.008Z,38.50
2019-05-26T09:21:05.775Z,39.69
2019-05-26T09:23:38.355Z,39.81
2019-05-26T09:26:11.070Z,39.77
2019-05-26T09:28:45.056Z,40.19
2019-05-26T09:31:17.781Z,37.65
2019-05-26T09:33:50.403Z,37.96
2019-05-26T09:36:22.960Z,39.56
2019-05-26T09:38:55.405Z,38.82
2019-05-26T09:41:28.010Z,39.53
2019-05-26T09:44:00.570Z,39.09
2019-05-26T09:46:33.037Z,39.24
2019-05-26T09:49:05.772Z,39.86
2019-05-26T09:51:38.412Z,38.67
2019-05-26T09:54:12.705Z,38.79
2019-05-26T09:56:45.130Z,39.20
2019-05-26T09:59:17.801Z,39.06
2019-05-26T10:01:50.179Z,40.66
2019-05-26T10:04:22.970Z,40.34
2019-05-26T10:06:55.675Z,37.86
2019-05-26T10:09:28.421Z,39.69
2019-05-26T10:12:00.870Z,38.52
2019-05-26T10:14:33.800Z,38.10
2019-05-26T10:17:06.470Z,37.55
2019-05-26T10:19:39.236Z,38.94
2019-05-26T10:22:11.892Z,37.55
2019-05-26T10:24:44.506Z,37.50
2019-05-26T10:27:17.385Z,36.39
2019-05-26T10:29:50.095Z,37.73
2019-05-26T10:32:22.715Z,35.62
2019-05-26T10:34:55.160Z,36.29
2019-05-26T10:37:29.645Z,38.17
2019-05-26T10:40:02.414Z,36.23
2019-05-26T10:42:36.630Z,38.03
2019-05-26T10:45:11.562Z,37.35
2019-05-26T10:47:44.261Z,37.38
2019-05-26T10:50:18.335Z,36.66
2019-05-26T10:52:51.125Z,36.17
2019-05-26T10:55:23.422Z,37.38
2019-05-26T10:57:56.309Z,35.59
2019-05-26T11:00:32.814Z,34.84
2019-05-26T11:03:04.209Z,36.97
2019-05-26T11:05:36.596Z,35.72
2019-05-26T11:08:09.350Z,35.09
2019-05-26T11:10:41.740Z,35.30
2019-05-26T11:13:14.576Z,35.86
2019-05-26T11:15:47.836Z,36.72
2019-05-26T11:18:20.599Z,37.45
2019-05-26T11:20:53.281Z,34.70
2019-05-26T11:23:25.830Z,34.55
2019-05-26T11:25:59.469Z,34.87
2019-05-26T11:28:32.126Z,35.16
2019-05-26T11:31:04.741Z,34.09
2019-05-26T11:33:37.586Z,36.50
2019-05-26T11:36:09.975Z,35.14
2019-05-26T11:38:42.590Z,34.56
2019-05-26T11:41:15.766Z,35.95
2019-05-26T11:43:48.476Z,36.06
2019-05-26T11:46:21.187Z,33.87
2019-05-26T11:48:53.875Z,34.84
2019-05-26T11:51:26.458Z,34.53
2019-05-26T11:53:58.962Z,35.34
2019-05-26T11:56:31.496Z,33.39
2019-05-26T11:59:04.366Z,35.28
2019-05-26T12:01:37.214Z,33.64
2019-05-26T12:04:10.006Z,34.95
2019-05-26T12:06:42.427Z,34.93
2019-05-26T12:09:15.072Z,35.33
2019-05-26T12:11:47.610Z,35.74
2019-05-26T12:14:33.655Z,35.26
2019-05-26T12:16:54.490Z,34.03
2019-05-26T12:19:26.975Z,33.57
2019-05-26T12:21:59.455Z,33.45
2019-05-26T12:24:31.982Z,34.09
2019-05-26T12:27:04.555Z,32.54
2019-05-26T12:29:37.040Z,32.91
2019-05-26T12:32:09.585Z,35.10
2019-05-26T12:34:43.445Z,33.60
2019-05-26T12:37:16.134Z,33.24
2019-05-26T12:39:48.858Z,33.65
2019-05-26T12:42:21.410Z,32.34
2019-05-26T12:44:54.110Z,33.11
2019-05-26T12:47:26.635Z,32.62
2019-05-26T12:49:59.489Z,32.21
2019-05-26T12:52:32.130Z,33.05
2019-05-26T12:55:09.513Z,33.00
2019-05-26T12:57:40.792Z,33.44
2019-05-26T13:00:14.536Z,33.06
2019-05-26T13:02:47.867Z,31.52
2019-05-26T13:05:21.975Z,32.63
2019-05-26T13:07:54.555Z,32.26
2019-05-26T13:10:27.405Z,32.28
2019-05-26T13:12:59.905Z,32.08
2019-05-26T13:15:32.675Z,31.51
2019-05-26T13:18:05.281Z,32.63
2019-05-26T13:20:37.750Z,32.22
2019-05-26T13:23:10.335Z,31.79
2019-05-26T13:25:42.860Z,33.67
2019-05-26T13:28:15.422Z,31.77
2019-05-26T13:30:48.040Z,34.06
2019-05-26T13:33:20.648Z,31.38
2019-05-26T13:35:53.159Z,32.33
2019-05-26T13:38:25.695Z,33.19
2019-05-26T13:40:58.270Z,31.83
2019-05-26T13:43:30.972Z,31.48
2019-05-26T13:46:03.505Z,32.28
2019-05-26T13:48:36.167Z,32.76
2019-05-26T13:51:08.805Z,31.85
2019-05-26T13:53:41.480Z,33.42
2019-05-26T13:56:15.105Z,32.62
2019-05-26T13:58:47.630Z,31.62
2019-05-26T14:01:20.085Z,31.05
2019-05-26T14:03:52.686Z,33.84
2019-05-26T14:06:25.220Z,32.55
2019-05-26T14:08:57.965Z,32.74
2019-05-26T14:11:30.475Z,32.20
2019-05-26T14:14:04.800Z,34.09
2019-05-26T14:16:38.243Z,33.20
2019-05-26T14:19:10.835Z,32.95
2019-05-26T14:21:44.555Z,34.16
2019-05-26T14:24:17.413Z,33.94
2019-05-26T14:26:50.019Z,34.23
2019-05-26T14:29:22.905Z,33.33
2019-05-26T14:31:55.521Z,31.96
2019-05-26T14:34:28.212Z,33.14
2019-05-26T14:37:00.973Z,32.82
2019-05-26T14:39:34.141Z,33.36
2019-05-26T14:42:06.850Z,34.35
2019-05-26T14:44:39.320Z,33.70
2019-05-26T14:47:11.888Z,34.15
2019-05-26T14:49:44.450Z,32.51
2019-05-26T14:52:16.933Z,32.79
2019-05-26T14:54:49.841Z,33.23
2019-05-26T14:57:22.475Z,33.61
2019-05-26T14:59:55.008Z,33.93
2019-05-26T15:02:27.721Z,34.11
2019-05-26T15:05:00.156Z,34.69
2019-05-26T15:07:32.685Z,34.46
2019-05-26T15:10:08.775Z,34.64
2019-05-26T15:12:41.460Z,34.83
2019-05-26T15:15:14.466Z,35.08
2019-05-26T15:17:47.086Z,35.25
2019-05-26T15:20:20.174Z,35.57
2019-05-26T15:22:52.980Z,35.10
2019-05-26T15:25:25.631Z,35.00
2019-05-26T15:27:58.012Z,34.41
2019-05-26T15:30:30.510Z,34.94
2019-05-26T15:33:02.978Z,35.77
2019-05-26T15:35:35.335Z,35.59
2019-05-26T15:38:07.915Z,36.47
2019-05-26T15:40:40.326Z,36.01
2019-05-26T15:43:12.873Z,35.57
2019-05-26T15:45:45.490Z,36.16
2019-05-26T15:48:18.112Z,36.94
2019-05-26T15:50:52.065Z,36.86
2019-05-26T15:53:24.597Z,36.32
2019-05-26T15:55:57.170Z,37.47
2019-05-26T15:58:29.975Z,36.98
2019-05-26T16:01:02.400Z,36.81
2019-05-26T16:03:35.160Z,36.55
2019-05-26T16:06:07.890Z,37.03
2019-05-26T16:08:41.624Z,37.45
2019-05-26T16:11:14.586Z,37.62
2019-05-26T16:13:47.367Z,37.66
2019-05-26T16:16:19.927Z,37.76
2019-05-26T16:18:52.570Z,38.14
2019-05-26T16:21:28.373Z,38.29
2019-05-26T16:23:59.420Z,37.64
2019-05-26T16:26:32.050Z,37.05
2019-05-26T16:29:05.570Z,38.50
2019-05-26T16:31:38.072Z,37.73
2019-05-26T16:34:10.750Z,38.49
2019-05-26T16:36:43.468Z,38.38
2019-05-26T16:39:17.010Z,39.78
2019-05-26T16:41:49.526Z,40.42
2019-05-26T16:44:22.173Z,40.10
2019-05-26T16:46:56.822Z,41.88
2019-05-26T16:49:29.185Z,42.35
2019-05-26T16:52:02.805Z,43.50
2019-05-26T16:54:35.760Z,41.87
2019-05-26T16:57:08.501Z,40.98
2019-05-26T16:59:41.031Z,41.27
2019-05-26T17:02:13.970Z,43.37
2019-05-26T17:04:46.682Z,40.88
2019-05-26T17:07:19.172Z,41.61
2019-05-26T17:09:51.736Z,42.21
2019-05-26T17:12:24.490Z,42.48
2019-05-26T17:14:57.600Z,41.87
2019-05-26T17:17:30.181Z,43.82
2019-05-26T17:20:03.294Z,41.96
2019-05-26T17:22:37.460Z,42.52
2019-05-26T17:25:10.450Z,42.42
2019-05-26T17:27:43.176Z,41.61
2019-05-26T17:30:16.246Z,41.38
2019-05-26T17:32:48.795Z,41.12
2019-05-26T17:35:21.535Z,41.14
2019-05-26T17:37:55.551Z,41.62
2019-05-26T17:40:28.120Z,42.06
2019-05-26T17:43:00.636Z,41.69
2019-05-26T17:45:33.530Z,41.92
2019-05-26T17:48:06.091Z,42.67
2019-05-26T17:50:38.605Z,43.10
2019-05-26T17:53:11.015Z,42.85
2019-05-26T17:55:43.865Z,42.91
2019-05-26T17:58:16.376Z,43.21
2019-05-26T18:00:49.020Z,43.09
2019-05-26T18:03:21.710Z,43.36
2019-05-26T18:05:54.137Z,44.29
2019-05-26T18:08:27.797Z,44.63
2019-05-26T18:11:00.351Z,44.64
2019-05-26T18:13:32.839Z,44.92
2019-05-26T18:16:05.490Z,45.10
2019-05-26T18:18:38.139Z,45.21
2019-05-26T18:21:12.111Z,45.57
2019-05-26T18:23:44.722Z,45.17
2019-05-26T18:26:17.181Z,45.35
2019-05-26T18:28:50.031Z,45.90
2019-05-26T18:31:22.564Z,46.32
2019-05-26T18:33:55.371Z,46.47
2019-05-26T18:36:28.290Z,47.54
2019-05-26T18:39:01.205Z,47.86
2019-05-26T18:41:34.760Z,48.16
2019-05-26T18:44:07.686Z,47.95
2019-05-26T18:46:40.268Z,48.10
2019-05-26T18:49:13.834Z,47.66
2019-05-26T18:51:46.372Z,48.28
2019-05-26T18:54:19.065Z,47.96
2019-05-26T18:56:51.586Z,50.21
2019-05-26T18:59:24.185Z,48.55
2019-05-26T19:01:56.710Z,50.04
2019-05-26T19:04:29.310Z,49.14
2019-05-26T19:07:01.875Z,49.99
2019-05-26T19:09:34.760Z,50.40
2019-05-26T19:12:07.516Z,49.90
2019-05-26T19:14:40.672Z,49.83
2019-05-26T19:17:13.271Z,50.84
2019-05-26T19:19:46.010Z,51.26
2019-05-26T19:22:19.094Z,50.28
2019-05-26T19:24:51.795Z,50.65
2019-05-26T19:27:24.425Z,50.91
2019-05-26T19:29:57.246Z,50.62
2019-05-26T19:32:30.123Z,50.06
2019-05-26T19:35:03.055Z,50.64
2019-05-26T19:37:35.765Z,50.76
2019-05-26T19:40:11.017Z,50.73
2019-05-26T19:42:43.960Z,50.84
2019-05-26T19:45:16.998Z,50.71
2019-05-26T19:47:49.761Z,50.92
2019-05-26T19:50:22.306Z,51.46
2019-05-26T19:52:54.756Z,51.93
2019-05-26T19:55:27.450Z,52.16
2019-05-26T19:58:00.390Z,52.47
2019-05-26T20:00:33.122Z,53.28
2019-05-26T20:03:06.560Z,53.21
2019-05-26T20:05:39.281Z,53.44
2019-05-26T20:08:13.125Z,52.74
2019-05-26T20:10:45.965Z,53.46
2019-05-26T20:13:18.485Z,53.64
2019-05-26T20:15:51.311Z,54.29
2019-05-26T20:18:23.846Z,54.03
2019-05-26T20:20:56.675Z,53.79
2019-05-26T20:23:29.498Z,53.93
2019-05-26T20:26:02.050Z,53.91
2019-05-26T20:28:35.865Z,53.92
2019-05-26T20:31:08.425Z,54.90
2019-05-26T20:33:41.012Z,55.75
2019-05-26T20:36:13.596Z,55.79
2019-05-26T20:38:46.175Z,56.33
2019-05-26T20:41:18.770Z,55.53
2019-05-26T20:43:51.630Z,55.73
2019-05-26T20:46:24.483Z,55.84
2019-05-26T20:48:57.100Z,55.96
2019-05-26T20:51:29.840Z,56.31
2019-05-26T20:54:02.254Z,55.90
2019-05-26T20:56:34.815Z,56.28
2019-05-26T20:59:07.305Z,56.50
2019-05-26T21:01:40.046Z,56.29
2019-05-26T21:04:12.745Z,57.45
2019-05-26T21:06:45.670Z,56.44
2019-05-26T21:09:18.561Z,55.33
2019-05-26T21:11:51.425Z,55.80
2019-05-26T21:14:25.221Z,56.68
2019-05-26T21:16:57.960Z,56.70
2019-05-26T21:19:31.800Z,56.97
2019-05-26T21:22:04.621Z,57.05
2019-05-26T21:24:37.101Z,57.41
2019-05-26T21:27:09.646Z,57.98
2019-05-26T21:29:42.231Z,58.35
2019-05-26T21:32:14.922Z,57.68
2019-05-26T21:34:47.182Z,58.72
2019-05-26T21:37:20.040Z,58.30
2019-05-26T21:39:52.420Z,58.33
2019-05-26T21:42:24.890Z,58.85
2019-05-26T21:44:57.574Z,58.86
2019-05-26T21:47:30.186Z,58.16
2019-05-26T21:50:02.743Z,58.59
2019-05-26T21:52:35.514Z,59.20
2019-05-26T21:55:08.485Z,59.42
2019-05-26T21:57:41.071Z,59.89
2019-05-26T22:00:15.932Z,59.55
2019-05-26T22:02:51.306Z,59.64
2019-05-26T22:05:23.880Z,59.50
2019-05-26T22:07:56.257Z,59.47
2019-05-26T22:10:28.805Z,59.67
2019-05-26T22:13:01.329Z,60.02
2019-05-26T22:15:34.130Z,59.85
2019-05-26T22:18:07.010Z,60.70
2019-05-26T22:20:39.365Z,60.14
2019-05-26T22:23:12.270Z,60.63
2019-05-26T22:25:45.015Z,61.08
2019-05-26T22:28:17.591Z,61.44
2019-05-26T22:30:49.975Z,61.53
2019-05-26T22:33:22.450Z,61.91
2019-05-26T22:35:55.061Z,61.93
2019-05-26T22:38:27.807Z,62.20
2019-05-26T22:41:01.526Z,62.55
2019-05-26T22:43:34.001Z,63.13
2019-05-26T22:46:06.396Z,57.29
2019-05-26T22:48:38.835Z,52.68
2019-05-26T22:51:11.650Z,50.08
2019-05-26T22:53:43.992Z,49.74
2019-05-26T22:56:16.751Z,50.83
2019-05-26T22:58:49.476Z,51.42
2019-05-26T23:01:21.993Z,52.05
2019-05-26T23:03:54.625Z,52.32
2019-05-26T23:06:27.793Z,53.64
2019-05-26T23:09:00.093Z,54.03
2019-05-26T23:11:33.970Z,54.90
2019-05-26T23:14:07.902Z,55.24
2019-05-26T23:16:41.755Z,56.14
2019-05-26T23:19:19.472Z,56.57
2019-05-26T23:21:50.111Z,57.46
2019-05-26T23:24:23.825Z,58.01
2019-05-26T23:26:57.810Z,58.31
2019-05-26T23:29:31.665Z,58.73
2019-05-26T23:32:05.710Z,59.19
2019-05-26T23:34:39.477Z,60.10
2019-05-26T23:37:13.340Z,60.69
2019-05-26T23:39:47.095Z,61.11
2019-05-26T23:42:20.920Z,61.45
2019-05-26T23:44:53.326Z,61.57
2019-05-26T23:47:25.761Z,62.43
2019-05-26T23:49:58.131Z,63.26
2019-05-26T23:52:30.830Z,58.29
2019-05-26T23:55:04.400Z,53.92
2019-05-26T23:57:36.797Z,53.53
